Flight Track Log - Related Links

Times and Time Zones

All times are in EDT time to prevent confusion due to time zone crossing. See the ASH3751 flight status page for this flight to view local times or setup timezone preferences in your user account.

Time Position Orientation Groundspeed Altitude Reporting Facility
EDT Latitude Longitude Course Direction KTS MPH feet Rate Location/Type
Mon 10:29:14 PM 42.0094 -87.7972 90° East 204 235 3,400  Level Chicago Center
Mon 10:30:16 PM 42.0392 -87.7147 64° Northeast 235 270 5,300 2,244 Climbing Chicago Center
Mon 10:31:17 PM 42.0736 -87.6211 64° Northeast 273 314 8,000 2,537 Climbing Chicago Center
Mon 10:32:19 PM 42.1092 -87.5269 63° Northeast 282 325 10,500 2,341 Climbing Chicago Center
Mon 10:33:20 PM 42.1453 -87.4261 64° Northeast 295 339 12,800 2,066 Climbing Chicago Center
Mon 10:34:00 PM 42.3001 -85.5443 90° East  Level FlightAware Approximate
Mon 10:34:21 PM 42.1836 -87.3236 63° Northeast 305 351 14,700  Level Chicago Center
Mon 10:35:23 PM 42.2219 -87.2169 64° Northeast 313 360 16,600 1,463 Climbing Chicago Center
Mon 10:36:24 PM 42.2728 -87.0756 64° Northeast 349 402 17,700 1,317 Climbing Chicago Center
Mon 10:37:26 PM 42.2842 -86.9306 84° East 388 447 19,300 1,561 Climbing Chicago Center
Mon 10:38:27 PM 42.2892 -86.7792 87° East 402 463 20,900 1,475 Climbing Chicago Center
Mon 10:39:28 PM 42.2961 -86.6417 86° East 409 471 22,300 1,366 Climbing Chicago Center
Mon 10:40:30 PM 42.3028 -86.4628 87° East 418 481 23,700 1,415 Climbing Chicago Center
Mon 10:41:31 PM 42.3075 -86.3061 88° East 421 484 25,200 1,230 Climbing Chicago Center
Mon 10:42:32 PM 42.3125 -86.1453 88° East 428 493 26,200 927 Climbing Chicago Center
Mon 10:43:34 PM 42.3144 -85.9803 89° East 440 506 27,100 1,024 Climbing Chicago Center
Mon 10:44:35 PM 42.3119 -85.8139 91° East 446 513 28,300 1,268 Climbing Chicago Center
Mon 10:45:37 PM 42.3086 -85.6119 91° East 451 519 29,700 1,171 Climbing Chicago Center
Mon 10:46:38 PM 42.3072 -85.4458 91° East 447 514 30,700 878 Climbing Chicago Center
Mon 10:47:40 PM 42.3039 -85.2781 91° East 448 516 31,500 780 Climbing Chicago Center
Mon 10:48:41 PM 42.3019 -85.1089 91° East 451 519 32,300 738 Climbing Chicago Center
Mon 10:49:42 PM 42.2986 -84.9425 91° East 446 513 33,000 439 Climbing Chicago Center
Mon 10:50:44 PM 42.2947 -84.7739 92° East 450 518 33,200 439 Climbing Chicago Center
Mon 10:51:45 PM 42.2903 -84.6042 92° East 453 521 33,900 885 Climbing Chicago Center
Mon 10:52:46 PM 42.2908 -84.4394 90° East 442 509 35,000 623 Climbing Chicago Center
Mon 10:53:31 PM 42.3106 -84.2953 79° East 436 502 35,000  Level Cleveland Center
Mon 10:54:31 PM 42.3283 -84.1333 82° East 436 502 35,000  Level Cleveland Center
Mon 10:55:31 PM 42.3436 -83.9658 83° East 441 507 35,000  Level Cleveland Center
Mon 10:56:31 PM 42.3569 -83.7978 84° East 441 507 35,000  Level Cleveland Center
Mon 10:57:31 PM 42.3739 -83.6328 82° East 441 507 35,000  Level Cleveland Center
Mon 10:58:31 PM 42.3867 -83.4564 84° East 457 526 35,000 1,000 Level Cleveland Center
Mon 10:59:31 PM 42.3972 -83.2853 85° East 457 526 37,000  Climbing Cleveland Center
Mon 11:00:31 PM 42.4114 -83.1228 83° East 465 535 35,000 -1,000 Descending Cleveland Center
Mon 11:01:31 PM 42.4233 -82.9489 85° East 465 535 35,000  Level Cleveland Center
Mon 11:02:31 PM 42.4372 -82.7747 84° East 465 535 35,000  Level Cleveland Center
Mon 11:03:31 PM 42.4508 -82.5981 84° East 465 535 35,000  Level Cleveland Center
Mon 11:04:31 PM 42.4622 -82.4211 85° East 465 535 35,000  Level Cleveland Center
Mon 11:05:31 PM 42.4753 -82.2469 84° East 465 535 35,000  Level Cleveland Center
Mon 11:06:31 PM 42.4881 -82.0697 84° East 465 535 35,000  Level Cleveland Center
Mon 11:07:31 PM 42.4986 -81.8956 85° East 460 529 35,000  Level Cleveland Center
Mon 11:08:31 PM 42.5131 -81.7042 84° East 460 529 35,000 150 Level Cleveland Center
Mon 11:09:31 PM 42.5231 -81.5269 86° East 465 535 35,300 650 Climbing Cleveland Center
Mon 11:10:31 PM 42.5347 -81.3722 84° East 459 528 36,300 850 Climbing Cleveland Center
Mon 11:11:31 PM 42.5461 -81.2061 85° East 454 522 37,000 350 Climbing Cleveland Center
Mon 11:12:31 PM 42.5553 -81.0342 86° East 448 516 37,000  Level Cleveland Center
Mon 11:13:31 PM 42.5661 -80.8594 85° East 460 529 37,000  Level Cleveland Center
Mon 11:14:31 PM 42.5747 -80.6847 86° East 468 539 37,000  Level Cleveland Center
Mon 11:15:31 PM 42.5853 -80.4958 86° East 463 533 37,000  Level Cleveland Center
Mon 11:16:31 PM 42.5953 -80.3181 86° East 462 532 37,000  Level Cleveland Center
Mon 11:17:31 PM 42.6033 -80.1489 86° East 457 526 37,000  Level Cleveland Center
Mon 11:18:31 PM 42.6108 -80.0106 86° East 457 526 37,000  Level Cleveland Center
Mon 11:19:31 PM 42.6222 -79.8017 86° East 458 527 37,000  Level Cleveland Center
Mon 11:20:31 PM 42.6314 -79.6264 86° East 458 527 37,000  Level Cleveland Center
Mon 11:21:31 PM 42.6381 -79.4486 87° East 463 533 37,000  Level Cleveland Center
Mon 11:22:31 PM 42.6467 -79.2706 86° East 463 533 37,000  Level Cleveland Center
Mon 11:23:31 PM 42.6528 -79.0897 87° East 468 539 37,000  Level Cleveland Center
Mon 11:24:31 PM 42.6606 -78.9061 87° East 478 550 37,000  Level Cleveland Center
Mon 11:25:31 PM 42.6683 -78.7222 87° East 483 556 37,000 -100 Level Cleveland Center
Mon 11:26:31 PM 42.6736 -78.5386 88° East 478 550 36,800 -700 Descending Cleveland Center
Mon 11:27:31 PM 42.6825 -78.3519 86° East 478 550 35,600 -1,250 Descending Cleveland Center
Mon 11:28:31 PM 42.6872 -78.1653 88° East 483 556 34,300 -1,350 Descending Cleveland Center
Mon 11:29:31 PM 42.6936 -77.9786 87° East 489 563 32,900 -1,371 Descending Cleveland Center
Mon 11:31:26 PM 42.7044 -77.6428 87° East 493 567 30,300 -1,337 Descending Boston Center
Mon 11:32:26 PM 42.7089 -77.4481 88° East 493 567 29,000 -650 Descending Boston Center
Mon 11:33:26 PM 42.7125 -77.2703 88° East 475 547 29,000  Level Boston Center
Mon 11:34:26 PM 42.7178 -77.0925 88° East 475 547 29,000  Level Boston Center
Mon 11:35:26 PM 42.7208 -76.9175 89° East 470 541 29,000  Level Boston Center
Mon 11:36:26 PM 42.7253 -76.7481 88° East 464 534 29,000  Level Boston Center
Mon 11:37:26 PM 42.7275 -76.5728 89° East 459 528 29,000  Level Boston Center
Mon 11:38:26 PM 42.7317 -76.3978 88° East 459 528 29,000  Level Boston Center
Mon 11:39:26 PM 42.7336 -76.2197 89° East 459 528 29,000  Level Boston Center
Mon 11:40:26 PM 42.7372 -76.0475 88° East 459 528 29,000  Level Boston Center
Mon 11:41:26 PM 42.7406 -75.8667 89° East 459 528 29,000 -800 Level Boston Center
Mon 11:42:26 PM 42.7417 -75.6914 89° East 464 534 27,400 -2,000 Descending Boston Center
Mon 11:43:26 PM 42.7422 -75.5161 90° East 464 534 25,000 -2,400 Descending Boston Center
Mon 11:44:26 PM 42.7444 -75.3522 89° East 446 513 22,600 -2,400 Descending Boston Center
Mon 11:45:26 PM 42.7444 -75.1911 90° East 436 502 20,200 -2,450 Descending Boston Center
Mon 11:46:26 PM 42.7481 -75.0358 88° East 424 488 17,700 -2,350 Descending Boston Center
Mon 11:47:26 PM 42.7492 -74.8914 89° East 403 464 15,500 -2,065 Descending Boston Center
Mon 11:47:59 PM 42.7464 -74.8208 93° East 360 414 14,500 -2,100 Descending Boston Center
Mon 11:48:26 PM 42.7478 -74.7531 88° East 368 423 13,400 -1,964 Descending Boston Center
Mon 11:48:54 PM 42.7489 -74.6964 88° East 350 403 12,700 -1,700 Descending Boston Center
Mon 11:49:26 PM 42.7483 -74.6200 91° East 357 411 11,700 -1,600 Descending Boston Center
Mon 11:49:54 PM 42.7494 -74.5608 89° East 355 409 11,100 -700 Descending Boston Center
Mon 11:50:26 PM 42.7531 -74.4872 86° East 349 402 11,000 -218 Descending Boston Center
Mon 11:50:49 PM 42.7619 -74.4481 73° East 327 376 10,900 -900 Descending Boston Center
Mon 11:51:26 PM 42.7800 -74.3778 71° East 320 368 10,100 -1,600 Descending Boston Center
Mon 11:51:49 PM 42.7931 -74.3414 64° Northeast 300 345 9,300 -1,900 Descending Boston Center
Mon 11:52:26 PM 42.8086 -74.2711 73° East 302 348 8,200 -1,770 Descending Boston Center
Mon 11:52:50 PM 42.8197 -74.2292 70° East 293 337 7,500 -1,700 Descending Boston Center
Mon 11:53:26 PM 42.8353 -74.1672 71° East 292 336 6,500 -1,770 Descending Boston Center
Mon 11:53:51 PM 42.8464 -74.1250 70° East 290 334 5,700 -1,800 Descending Boston Center
Mon 11:54:26 PM 42.8619 -74.0603 72° East 286 329 4,700 -1,700 Descending Boston Center
Mon 11:54:51 PM 42.8750 -74.0211 66° East 283 326 4,000 -1,300 Descending Boston Center
Mon 11:55:26 PM 42.8861 -73.9703 73° East 273 314 3,400 -1,082 Descending Boston Center
Mon 11:55:52 PM 42.8950 -73.9364 70° East 209 241 2,900 -900 Descending Boston Center
Mon 11:56:26 PM 42.9036 -73.9028 71° East 231 266 2,500 -885 Descending Boston Center
Mon 11:56:53 PM 42.9147 -73.8661 68° East 191 220 2,000 -500 Descending Boston Center
Mon 11:57:26 PM 42.9067 -73.8261 105° East 189 217 2,000 111 Level Boston Center
Mon 11:57:47 PM 42.8903 -73.8172 158° South 173 199 2,100  Climbing Boston Center
Mon 11:58:26 PM 42.8672 -73.8111 169° South 139 160 2,000 -98 Descending Boston Center
Mon 11:58:48 PM 42.8422 -73.8106 179° South 175 201 2,000 -585 Level Boston Center
Mon 11:59:48 PM 42.7986 -73.8097 179° South 156 180 1,200 -793 Descending Boston Center
Tue 12:00:49 AM 42.7611 -73.8089 179° South 136 157 400 -787 Descending Boston Center

Login

Don't have an account? Register now (free) for customized features, flight alerts, and more!